Time;durP1;ratioP1;P1;durP2;ratioP2;P2;SDS_P1;SDS_P2;PMS_P1;PMS_P2;Temp;Humidity;BMP_temperature;BMP_pressure;BME280_temperature;BME280_humidity;BME280_pressure;Samples;Min_cycle;Max_cycle;Signal;HPM_P1;HPM_P2
2021/05/24 00:01:28;;;;;;;5.28;1.83;;;;;;;11.18;64.13;92846.16;4954632;29;20062;-76
2021/05/24 00:03:53;;;;;;;4.15;1.95;;;;;;;11.15;64.06;92841.50;4962854;28;21798;-76
2021/05/24 00:06:19;;;;;;;5.43;2.90;;;;;;;11.16;63.68;92845.66;4972901;28;20121;-76
2021/05/24 00:08:45;;;;;;;7.50;3.47;;;;;;;11.15;63.97;92838.09;4978881;28;20050;-76
2021/05/24 00:11:11;;;;;;;9.32;3.00;;;;;;;11.16;65.59;92845.66;4960293;28;20518;-76
2021/05/24 00:13:44;;;;;;;6.03;2.33;;;;;;;11.18;66.05;92850.63;4969346;28;20138;-76
2021/05/24 00:16:10;;;;;;;6.25;2.35;;;;;;;11.17;65.51;92852.47;4954300;29;20134;-76
2021/05/24 00:18:36;;;;;;;5.95;1.80;;;;;;;11.18;65.10;92846.16;4966282;28;20073;-75
2021/05/24 00:21:03;;;;;;;5.70;2.08;;;;;;;11.19;64.96;92841.69;4950697;28;20078;-76
2021/05/24 00:23:29;;;;;;;5.85;2.33;;;;;;;11.23;64.30;92829.59;4957684;28;20667;-76
2021/05/24 00:25:55;;;;;;;7.38;2.70;;;;;;;11.27;64.35;92838.47;4993270;28;20405;-76
2021/05/24 00:28:21;;;;;;;7.20;2.70;;;;;;;11.33;63.75;92839.19;4991527;28;20026;-76
2021/05/24 00:30:50;;;;;;;5.95;2.78;;;;;;;11.39;65.55;92838.84;4959319;28;20420;-76
2021/05/24 00:33:17;;;;;;;7.20;2.08;;;;;;;11.41;65.57;92828.06;4975389;28;20049;-76
2021/05/24 00:35:43;;;;;;;3.90;2.00;;;;;;;11.39;64.98;92825.75;4984596;28;20102;-76
2021/05/24 00:38:10;;;;;;;5.82;1.90;;;;;;;11.39;64.54;92819.69;4972905;28;20042;-76
2021/05/24 00:40:37;;;;;;;4.47;2.28;;;;;;;11.39;64.21;92819.69;4953637;29;20047;-76
2021/05/24 00:43:04;;;;;;;3.72;2.10;;;;;;;11.39;64.22;92815.25;4953671;29;20308;-76
2021/05/24 00:45:30;;;;;;;5.72;2.08;;;;;;;11.42;63.86;92821.78;4953240;28;20465;-76
2021/05/24 00:47:56;;;;;;;6.55;2.55;;;;;;;11.42;63.67;92801.56;4973774;28;20113;-76
2021/05/24 00:50:22;;;;;;;7.32;2.33;;;;;;;11.45;63.73;92800.22;4972465;28;20046;-76
2021/05/24 00:52:48;;;;;;;5.95;2.47;;;;;;;11.49;63.78;92795.22;4972682;28;20054;-75
2021/05/24 00:55:14;;;;;;;5.43;2.60;;;;;;;11.51;63.93;92791.22;4973009;28;20055;-76
2021/05/24 00:57:41;;;;;;;4.97;2.63;;;;;;;11.52;64.04;92797.25;4955724;28;20046;-76
2021/05/24 01:00:10;;;;;;;7.28;2.60;;;;;;;11.53;65.09;92796.97;4988190;28;20046;-76
2021/05/24 01:02:36;;;;;;;6.05;2.30;;;;;;;11.53;64.98;92788.31;4974750;28;20043;-76
2021/05/24 01:05:03;;;;;;;5.53;2.60;;;;;;;11.54;64.32;92782.78;4959274;28;20449;-76
2021/05/24 01:07:28;;;;;;;10.35;2.50;;;;;;;11.55;64.70;92779.13;4972027;28;20145;-76
2021/05/24 01:09:54;;;;;;;5.65;2.80;;;;;;;11.55;65.80;92776.50;4955223;28;20502;-76
2021/05/24 01:12:20;;;;;;;6.55;2.40;;;;;;;11.56;65.75;92769.41;4955550;28;20042;-76
2021/05/24 01:14:46;;;;;;;5.30;2.53;;;;;;;11.56;65.10;92775.41;4972337;28;20034;-76
2021/05/24 01:17:11;;;;;;;5.32;2.50;;;;;;;11.55;65.15;92762.59;4972191;28;20129;-76
2021/05/24 01:19:48;;;;;;;4.53;2.25;;;;;;;11.56;64.69;92764.94;4958282;28;20031;-76
2021/05/24 01:22:20;;;;;;;6.55;2.65;;;;;;;11.54;64.66;92761.03;4958276;28;20248;-76
2021/05/24 01:24:47;;;;;;;;;;;;;;;11.57;65.29;92752.59;4957284;28;20046;-76
2021/05/24 01:27:13;;;;;;;4.75;2.35;;;;;;;11.58;65.01;92754.16;4974244;28;19913;-76
2021/05/24 01:29:39;;;;;;;6.55;2.47;;;;;;;11.58;64.77;92762.03;4991613;28;20061;-76
2021/05/24 01:32:06;;;;;;;8.40;2.60;;;;;;;11.57;64.39;92757.84;4991806;28;20121;-76
2021/05/24 01:34:33;;;;;;;5.65;2.30;;;;;;;11.57;64.68;92765.72;4974437;28;20042;-76
2021/05/24 01:37:00;;;;;;;5.00;2.50;;;;;;;11.57;64.85;92765.72;4955289;28;20035;-76
2021/05/24 01:39:25;;;;;;;7.40;2.30;;;;;;;11.56;64.55;92762.31;4954530;28;20449;-76
2021/05/24 01:41:51;;;;;;;7.13;2.42;;;;;;;11.57;64.39;92747.34;4987064;28;20476;-76
2021/05/24 01:44:31;;;;;;;8.50;2.53;;;;;;;11.56;64.31;92748.44;4972043;28;20135;-76
2021/05/24 01:46:57;;;;;;;4.78;2.40;;;;;;;11.56;64.48;92764.94;4991148;28;20054;-76
2021/05/24 01:49:23;;;;;;;8.68;2.58;;;;;;;11.58;64.30;92768.06;4974308;28;20046;-76
2021/05/24 01:51:50;;;;;;;6.35;2.30;;;;;;;11.58;64.22;92754.16;4978307;28;20529;-76
2021/05/24 01:54:15;;;;;;;5.03;2.53;;;;;;;11.58;64.61;92762.03;4967952;28;20047;-76
2021/05/24 01:56:42;;;;;;;6.00;2.58;;;;;;;11.59;64.85;92758.34;4960976;28;20112;-75
2021/05/24 01:59:08;;;;;;;5.18;2.42;;;;;;;11.59;64.61;92753.88;4973999;28;20069;-76
2021/05/24 02:01:34;;;;;;;9.55;2.63;;;;;;;11.58;64.27;92756.78;4972244;28;20497;-77
2021/05/24 02:04:01;;;;;;;10.20;2.45;;;;;;;11.60;64.68;92762.53;4972543;28;20505;-76
2021/05/24 02:06:27;;;;;;;6.75;2.60;;;;;;;11.59;64.50;92753.09;4954415;28;20612;-76
2021/05/24 02:08:52;;;;;;;5.13;2.30;;;;;;;11.59;64.80;92761.72;4971595;28;20075;-76
2021/05/24 02:11:19;;;;;;;8.43;2.47;;;;;;;11.57;64.63;92756.03;4971761;28;20414;-76
2021/05/24 02:13:46;;;;;;;5.55;2.22;;;;;;;11.57;64.86;92765.72;4985793;28;20122;-76
2021/05/24 02:16:11;;;;;;;7.47;2.80;;;;;;;11.57;64.68;92760.47;4990372;28;20046;-76
2021/05/24 02:18:37;;;;;;;7.15;2.67;;;;;;;11.56;65.15;92759.69;4989932;28;20129;-76
2021/05/24 02:21:06;;;;;;;6.13;2.67;;;;;;;11.57;65.18;92757.84;4985322;28;20057;-76
2021/05/24 02:23:32;;;;;;;5.78;3.00;;;;;;;11.57;65.07;92745.53;4954475;28;20047;-76
2021/05/24 02:25:58;;;;;;;6.00;2.55;;;;;;;11.56;65.37;92738.72;4953986;28;20498;-76
2021/05/24 02:28:24;;;;;;;8.13;3.22;;;;;;;11.58;65.43;92730.56;4971801;28;20102;-76
2021/05/24 02:30:49;;;;;;;6.85;2.80;;;;;;;11.58;65.96;92736.59;4971036;28;20068;-76
2021/05/24 02:33:15;;;;;;;8.93;3.22;;;;;;;11.58;66.86;92741.06;4954070;28;20046;-76
2021/05/24 02:35:41;;;;;;;9.30;2.80;;;;;;;11.59;65.90;92738.13;4953889;28;20055;-76
2021/05/24 02:38:07;;;;;;;7.32;3.08;;;;;;;11.59;66.22;92725.03;4970843;28;20050;-76
2021/05/24 02:40:33;;;;;;;6.70;2.63;;;;;;;11.57;65.85;92719.31;4971570;28;20501;-76
2021/05/24 02:43:01;;;;;;;9.18;3.38;;;;;;;11.57;65.48;92697.53;4985574;28;20117;-76
2021/05/24 02:45:27;;;;;;;5.72;2.90;;;;;;;11.58;65.66;92702.50;4968817;28;20481;-75
2021/05/24 02:47:52;;;;;;;11.45;3.40;;;;;;;11.60;65.34;92697.00;4971111;28;20055;-76
2021/05/24 02:50:23;;;;;;;8.07;3.58;;;;;;;11.61;64.98;92688.81;4961664;28;20056;-76
2021/05/24 02:52:49;;;;;;;6.95;3.22;;;;;;;11.64;65.36;92688.25;4989363;28;20030;-76
2021/05/24 02:55:15;;;;;;;6.82;3.42;;;;;;;11.63;65.74;92697.19;4990808;28;20039;-76
2021/05/24 02:57:41;;;;;;;8.45;3.10;;;;;;;11.64;66.17;92698.75;4986920;28;20390;-76
2021/05/24 03:00:07;;;;;;;5.07;2.83;;;;;;;11.63;65.88;92706.88;4968816;28;20043;-76
2021/05/24 03:02:34;;;;;;;6.45;3.30;;;;;;;11.61;65.96;92709.03;4971150;28;20043;-75
2021/05/24 03:04:59;;;;;;;12.07;3.60;;;;;;;11.64;66.77;92703.19;4973887;28;20061;-76
2021/05/24 03:07:25;;;;;;;9.95;2.72;;;;;;;11.60;66.89;92703.00;4972262;28;20457;-76
2021/05/24 03:09:51;;;;;;;7.57;2.97;;;;;;;11.59;66.04;92698.81;4970653;28;20053;-76
2021/05/24 03:12:17;;;;;;;5.93;2.72;;;;;;;11.59;67.17;92700.66;4983242;28;20073;-76
2021/05/24 03:14:42;;;;;;;5.25;2.70;;;;;;;11.60;66.20;92708.25;4976406;28;20040;-76
2021/05/24 03:17:08;;;;;;;8.05;2.65;;;;;;;11.60;66.23;92707.47;4990226;28;20054;-76
2021/05/24 03:19:34;;;;;;;8.88;2.90;;;;;;;11.58;66.77;92720.09;4969222;28;20145;-76
2021/05/24 03:21:59;;;;;;;8.38;2.72;;;;;;;11.57;66.42;92721.13;4970458;28;20073;-76
2021/05/24 03:24:25;;;;;;;9.32;3.20;;;;;;;11.57;66.60;92723.75;4971149;28;20051;-76
2021/05/24 03:26:51;;;;;;;5.93;2.40;;;;;;;11.57;65.95;92729.81;4987960;28;20074;-76
2021/05/24 03:29:16;;;;;;;5.60;2.40;;;;;;;11.56;65.15;92730.84;4949558;28;20042;-76
2021/05/24 03:31:42;;;;;;;8.63;1.45;;;;;;;11.58;61.02;92738.44;4956741;28;20043;-77
2021/05/24 03:34:08;;;;;;;5.15;1.52;;;;;;;11.49;61.27;92742.78;4974096;28;20042;-76
2021/05/24 03:36:33;;;;;;;3.40;1.85;;;;;;;11.42;60.53;92743.91;4955428;29;20063;-76
2021/05/24 03:38:59;;;;;;;3.63;1.83;;;;;;;11.37;60.68;92746.59;4954525;29;20085;-76
2021/05/24 03:41:25;;;;;;;5.50;1.77;;;;;;;11.33;60.65;92750.84;4937534;29;20039;-76
2021/05/24 03:43:50;;;;;;;5.82;1.90;;;;;;;11.31;60.29;92752.19;4959144;28;20047;-76
2021/05/24 03:46:16;;;;;;;4.88;1.60;;;;;;;11.29;60.37;92741.22;4980648;28;20097;-76
2021/05/24 03:48:42;;;;;;;2.55;1.48;;;;;;;11.23;60.46;92743.13;4956657;28;20047;-76
2021/05/24 03:51:09;;;;;;;4.65;1.60;;;;;;;11.21;60.82;92742.63;4972872;28;20081;-76
2021/05/24 03:53:35;;;;;;;3.22;1.50;;;;;;;11.21;61.12;92747.88;4976962;28;20481;-76
2021/05/24 03:56:01;;;;;;;3.92;1.70;;;;;;;11.20;61.80;92741.06;4971087;28;20065;-76
2021/05/24 03:58:27;;;;;;;3.40;1.52;;;;;;;11.38;60.31;92747.38;4975814;28;20473;-75
2021/05/24 04:00:53;;;;;;;5.65;1.88;;;;;;;11.26;60.63;92750.44;4941691;28;20089;-76
2021/05/24 04:03:19;;;;;;;2.88;1.60;;;;;;;11.16;61.33;92751.31;4973805;28;20070;-76
2021/05/24 04:05:47;;;;;;;3.00;1.50;;;;;;;11.11;61.91;92754.03;4968666;28;20122;-76
2021/05/24 04:08:13;;;;;;;2.67;1.42;;;;;;;11.06;61.76;92745.47;4955134;28;20058;-76
2021/05/24 04:10:58;;;;;;;4.00;1.70;;;;;;;11.06;62.75;92755.94;4974055;28;20038;-76
2021/05/24 04:13:24;;;;;;;6.15;2.20;;;;;;;11.17;64.42;92745.03;4973539;28;20039;-76
2021/05/24 04:15:52;;;;;;;11.18;3.10;;;;;;;11.21;66.84;92740.00;4971582;28;20117;-76
2021/05/24 04:18:20;;;;;;;8.60;3.67;;;;;;;11.15;68.59;92734.06;4973809;28;20055;-76
2021/05/24 04:20:47;;;;;;;9.70;4.00;;;;;;;10.98;69.24;92724.06;4971398;28;20085;-76
2021/05/24 04:23:16;;;;;;;9.00;3.65;;;;;;;10.94;69.16;92725.72;4955902;28;20105;-76
2021/05/24 04:25:42;;;;;;;10.43;3.58;;;;;;;10.91;69.11;92715.00;4974581;28;20039;-76
2021/05/24 04:28:08;;;;;;;8.13;3.30;;;;;;;10.91;69.68;92715.00;4972871;28;20054;-76
2021/05/24 04:30:33;;;;;;;8.57;3.55;;;;;;;10.95;70.28;92713.38;4973456;28;20069;-76
2021/05/24 04:32:59;;;;;;;10.43;3.00;;;;;;;10.94;70.23;92696.09;4973365;28;20087;-76
2021/05/24 04:35:25;;;;;;;5.40;2.65;;;;;;;10.94;69.48;92696.91;4973065;28;20047;-76
2021/05/24 04:37:50;;;;;;;8.27;2.75;;;;;;;10.97;69.74;92683.22;4973100;28;20053;-76
2021/05/24 04:40:16;;;;;;;10.38;3.08;;;;;;;10.97;69.54;92685.06;4972499;28;20039;-76
2021/05/24 04:42:42;;;;;;;6.35;3.13;;;;;;;10.97;69.47;92688.47;4973526;28;20517;-76
2021/05/24 04:45:08;;;;;;;7.53;2.92;;;;;;;10.97;69.82;92683.22;4986438;28;20043;-76
2021/05/24 04:47:34;;;;;;;8.52;2.65;;;;;;;10.99;69.94;92681.09;4954751;28;20077;-76
2021/05/24 04:50:00;;;;;;;5.53;2.80;;;;;;;11.03;69.88;92684.72;4980841;28;20625;-76
2021/05/24 04:52:26;;;;;;;8.68;2.63;;;;;;;11.04;69.40;92675.78;4987726;28;20071;-76
2021/05/24 04:54:52;;;;;;;5.43;2.50;;;;;;;11.07;68.84;92674.44;4956167;28;20256;-76
2021/05/24 04:57:18;;;;;;;7.93;2.42;;;;;;;11.11;68.58;92674.66;4939648;28;20049;-76
2021/05/24 04:59:43;;;;;;;6.88;3.05;;;;;;;11.14;69.17;92672.22;4972828;28;20121;-76
2021/05/24 05:02:09;;;;;;;8.80;3.83;;;;;;;11.19;69.27;92684.47;4972444;28;20071;-76
2021/05/24 05:04:35;;;;;;;9.45;3.90;;;;;;;11.20;70.75;92688.66;4956174;28;20046;-76
2021/05/24 05:07:01;;;;;;;9.82;3.65;;;;;;;11.30;70.41;92701.59;4972833;28;20034;-76
2021/05/24 05:09:26;;;;;;;8.68;3.53;;;;;;;11.25;70.68;92696.44;4991732;28;20050;-76
2021/05/24 05:11:55;;;;;;;7.72;3.97;;;;;;;11.16;71.15;92698.16;4973438;28;20062;-76
2021/05/24 05:14:22;;;;;;;9.60;4.10;;;;;;;11.11;71.54;92693.00;4976284;28;20046;-76
2021/05/24 05:16:48;;;;;;;11.70;4.22;;;;;;;11.10;71.55;92700.09;4991736;28;20066;-76
2021/05/24 05:19:16;;;;;;;8.80;4.32;;;;;;;11.09;72.21;92708.22;4981449;28;20149;-76
2021/05/24 05:21:42;;;;;;;8.35;4.13;;;;;;;11.07;72.13;92715.56;4952874;29;20052;-76
2021/05/24 05:24:08;;;;;;;9.25;4.28;;;;;;;11.06;72.25;92729.75;4952880;29;20055;-76
2021/05/24 05:26:33;;;;;;;13.48;4.28;;;;;;;11.03;72.48;92739.72;4970818;28;20061;-76
2021/05/24 05:28:59;;;;;;;10.40;4.85;;;;;;;10.99;73.95;92751.81;4967766;28;20117;-76
2021/05/24 05:31:25;;;;;;;13.18;4.50;;;;;;;10.79;75.68;92758.09;4971393;28;20536;-76
2021/05/24 05:33:51;;;;;;;7.00;4.25;;;;;;;10.74;75.92;92763.41;4971913;28;20039;-76
2021/05/24 05:36:17;;;;;;;8.75;4.65;;;;;;;10.74;75.71;92765.22;4978099;28;20061;-75
2021/05/24 05:38:43;;;;;;;12.23;5.22;;;;;;;10.61;76.41;92770.06;4955091;28;20050;-76
2021/05/24 05:41:09;;;;;;;11.52;5.13;;;;;;;10.62;76.61;92769.00;4972298;28;20043;-76
2021/05/24 05:43:35;;;;;;;8.95;4.85;;;;;;;10.55;77.67;92775.63;4970889;28;20035;-76
2021/05/24 05:46:01;;;;;;;10.93;5.22;;;;;;;10.39;79.14;92785.50;4972464;28;20115;-76
2021/05/24 05:48:27;;;;;;;10.93;5.70;;;;;;;10.49;79.58;92788.03;4974042;28;20057;-76
2021/05/24 05:50:52;;;;;;;10.88;5.88;;;;;;;10.40;80.39;92789.66;4973877;28;20051;-76
2021/05/24 05:53:18;;;;;;;10.35;5.35;;;;;;;10.36;80.70;92792.06;4971244;28;20030;-76
2021/05/24 05:55:44;;;;;;;9.85;4.90;;;;;;;10.26;81.25;92780.88;4964259;28;20069;-76
2021/05/24 05:58:10;;;;;;;10.35;5.63;;;;;;;10.28;81.81;92795.25;4990845;28;20374;-76
2021/05/24 06:00:35;;;;;;;13.20;5.28;;;;;;;10.20;83.62;92809.72;4956748;28;20066;-76
2021/05/24 06:03:01;;;;;;;13.32;6.00;;;;;;;9.99;83.62;92788.16;4985484;28;20522;-77
2021/05/24 06:05:26;;;;;;;10.43;6.03;;;;;;;10.06;84.37;92793.06;4971482;28;20136;-77
2021/05/24 06:07:52;;;;;;;11.40;6.43;;;;;;;10.10;83.93;92794.09;4967508;28;20035;-77
2021/05/24 06:10:18;;;;;;;14.90;8.05;;;;;;;10.07;84.75;92786.81;4972237;28;20194;-77
2021/05/24 06:12:46;;;;;;;12.05;6.75;;;;;;;10.10;83.82;92783.63;4952328;29;20066;-77
2021/05/24 06:15:15;;;;;;;10.55;7.40;;;;;;;10.11;84.59;92784.41;4964413;28;20050;-77
2021/05/24 06:17:42;;;;;;;12.00;7.28;;;;;;;10.14;84.51;92789.88;4971860;28;20050;-78
2021/05/24 06:20:09;;;;;;;13.77;8.18;;;;;;;9.98;85.59;92794.47;4971601;28;20460;-78
2021/05/24 06:22:35;;;;;;;15.20;8.02;;;;;;;9.94;85.66;92796.06;4969947;28;20041;-77
2021/05/24 06:25:00;;;;;;;13.57;7.75;;;;;;;9.92;86.14;92800.78;4954511;28;20051;-79
2021/05/24 06:27:26;;;;;;;12.52;7.75;;;;;;;9.96;85.22;92793.94;4992592;28;20041;-79
2021/05/24 06:29:52;;;;;;;12.48;8.10;;;;;;;9.93;87.43;92784.03;4956258;28;20042;-79
2021/05/24 06:32:17;;;;;;;15.52;7.05;;;;;;;9.98;84.72;92780.59;4993591;28;20043;-79
2021/05/24 06:34:43;;;;;;;16.48;7.68;;;;;;;10.01;85.08;92782.66;4975461;28;20493;-78
2021/05/24 06:37:09;;;;;;;11.05;7.28;;;;;;;10.11;85.01;92785.19;4969635;28;20038;-76
2021/05/24 06:39:34;;;;;;;13.38;7.00;;;;;;;10.12;84.28;92783.38;4952437;28;20066;-78
2021/05/24 06:42:00;;;;;;;16.02;7.80;;;;;;;10.15;83.85;92783.56;4973998;28;20348;-76
2021/05/24 06:44:26;;;;;;;11.80;7.50;;;;;;;10.17;84.60;92788.53;4967518;28;20046;-77
2021/05/24 06:46:51;;;;;;;12.93;7.53;;;;;;;10.12;85.55;92791.97;4949558;28;20051;-78
2021/05/24 06:49:17;;;;;;;11.38;7.07;;;;;;;10.14;85.11;92802.94;4977411;28;20062;-81
2021/05/24 06:51:43;;;;;;;10.38;7.05;;;;;;;10.11;86.11;92819.22;4976071;28;20054;-79
2021/05/24 06:54:09;;;;;;;11.57;7.28;;;;;;;10.13;85.52;92827.56;4969860;28;20051;-80
2021/05/24 06:56:36;;;;;;;13.55;8.00;;;;;;;10.09;85.63;92838.84;4975974;28;20417;-80
2021/05/24 06:59:02;;;;;;;15.23;8.65;;;;;;;10.10;86.77;92833.31;4973555;28;20050;-78
2021/05/24 07:01:29;;;;;;;16.08;8.25;;;;;;;10.10;87.42;92841.16;4977856;28;20516;-79
2021/05/24 07:03:54;;;;;;;13.90;7.15;;;;;;;10.04;86.40;92836.25;4948040;28;20051;-78
2021/05/24 07:06:20;;;;;;;10.15;6.35;;;;;;;10.12;85.06;92838.28;4988413;28;20050;-78
2021/05/24 07:08:46;;;;;;;14.85;7.30;;;;;;;10.14;86.08;92839.56;4966057;28;20145;-78
2021/05/24 07:11:11;;;;;;;101.55;9.70;;;;;;;9.92;88.48;92826.16;4977162;28;20050;-77
2021/05/24 07:13:37;;;;;;;12.65;8.55;;;;;;;9.68;89.16;92820.81;4975051;28;20046;-78
2021/05/24 07:16:03;;;;;;;16.00;8.10;;;;;;;9.67;88.73;92804.34;4944236;29;20051;-77
2021/05/24 07:18:29;;;;;;;12.48;7.50;;;;;;;9.74;88.03;92802.22;4958259;28;20038;-79
2021/05/24 07:20:55;;;;;;;16.50;8.15;;;;;;;9.72;87.83;92799.09;4982746;28;20051;-78
2021/05/24 07:23:21;;;;;;;12.55;7.88;;;;;;;9.76;88.16;92787.03;4943415;28;20106;-77
2021/05/24 07:25:47;;;;;;;14.57;7.40;;;;;;;9.73;88.42;92779.75;4964593;28;20514;-79
2021/05/24 07:28:13;;;;;;;13.50;7.43;;;;;;;9.77;88.57;92770.31;4964585;28;20066;-78
2021/05/24 07:30:40;;;;;;;14.20;8.15;;;;;;;9.59;89.03;92768.34;4914914;28;20051;-78
2021/05/24 07:33:05;;;;;;;16.38;8.27;;;;;;;9.66;88.20;92768.84;4981515;28;20034;-78
2021/05/24 07:35:31;;;;;;;16.35;8.30;;;;;;;9.66;87.65;92778.47;4959565;28;20107;-78
2021/05/24 07:37:57;;;;;;;14.57;8.70;;;;;;;9.69;88.04;92773.50;4979694;28;20035;-79
2021/05/24 07:40:25;;;;;;;16.25;9.23;;;;;;;9.64;89.18;92783.22;4980026;28;20078;-78
2021/05/24 07:42:52;;;;;;;11.93;8.77;;;;;;;9.62;89.45;92787.94;4960937;28;20336;-78
2021/05/24 07:47:43;;;;;;;15.55;8.50;;;;;;;9.75;89.11;92789.94;4993495;28;20061;-78
2021/05/24 07:50:09;;;;;;;12.07;8.27;;;;;;;9.80;88.83;92790.69;4988565;28;20413;-78
2021/05/24 07:52:35;;;;;;;13.15;8.38;;;;;;;9.84;88.67;92790.91;4942400;29;20043;-78
2021/05/24 07:55:02;;;;;;;16.88;9.50;;;;;;;9.98;89.68;92788.44;4952280;28;20560;-78
2021/05/24 07:57:28;;;;;;;15.27;9.63;;;;;;;10.05;90.32;92796.75;4975335;28;20039;-78
2021/05/24 07:59:54;;;;;;;11.80;8.23;;;;;;;10.14;89.58;92792.50;4972878;28;20050;-77
2021/05/24 08:02:21;;;;;;;12.07;7.85;;;;;;;10.24;88.83;92794.22;4986495;28;20085;-77
2021/05/24 08:04:47;;;;;;;10.57;7.45;;;;;;;10.38;87.92;92781.28;4977144;28;20034;-77
2021/05/24 08:07:13;;;;;;;11.88;8.05;;;;;;;10.47;87.61;92790.13;4973212;28;20204;-78
2021/05/24 08:09:38;;;;;;;11.75;7.20;;;;;;;10.45;86.87;92783.59;4987539;28;20054;-75
2021/05/24 08:12:04;;;;;;;973.17;27.05;;;;;;;10.42;87.78;92779.69;4944578;28;20244;-76
2021/05/24 08:14:30;;;;;;;1083.50;30.30;;;;;;;9.83;90.90;92788.56;4966065;28;20042;-75
2021/05/24 08:16:58;;;;;;;1266.65;36.33;;;;;;;9.85;90.72;92779.41;4966695;28;20059;-75
2021/05/24 08:19:23;;;;;;;769.72;23.10;;;;;;;9.87;89.73;92773.91;4961837;28;20094;-75
2021/05/24 08:21:50;;;;;;;13.45;7.63;;;;;;;9.79;89.33;92783.09;4976451;28;20142;-78
2021/05/24 08:24:17;;;;;;;12.57;7.78;;;;;;;9.88;89.60;92783.28;4958379;28;20035;-80
2021/05/24 08:26:44;;;;;;;9.70;6.88;;;;;;;9.98;88.54;92788.44;4944654;28;20131;-75
2021/05/24 08:29:10;;;;;;;9.27;6.43;;;;;;;9.98;88.50;92793.69;4986642;28;20046;-77
2021/05/24 08:31:36;;;;;;;10.05;6.28;;;;;;;10.09;88.36;92797.78;4973498;28;20054;-77
2021/05/24 08:34:03;;;;;;;9.93;6.45;;;;;;;10.12;88.30;92799.81;4972085;28;20068;-76
2021/05/24 08:36:29;;;;;;;12.57;6.00;;;;;;;10.10;87.59;92794.09;4968367;28;20406;-77
2021/05/24 08:38:55;;;;;;;435.88;15.18;;;;;;;9.96;90.55;92808.88;4968712;28;20043;-78
2021/05/24 08:41:21;;;;;;;1502.00;415.50;;;;;;;10.11;90.79;92800.91;4969361;28;20042;-78
2021/05/24 08:43:47;;;;;;;906.65;425.30;;;;;;;10.44;89.96;92800.34;4971849;28;20059;-79
2021/05/24 08:46:13;;;;;;;99.60;43.35;;;;;;;10.51;89.76;92796.34;4985780;28;20055;-80
2021/05/24 08:48:39;;;;;;;194.05;19.52;;;;;;;11.02;89.62;92777.44;4970418;28;20051;-76
2021/05/24 08:51:06;;;;;;;31.52;8.00;;;;;;;11.25;85.87;92769.81;4970779;28;20559;-75
2021/05/24 08:53:32;;;;;;;859.65;766.08;;;;;;;11.41;84.02;92763.31;4970614;28;20041;-76
2021/05/24 08:55:58;;;;;;;158.95;116.63;;;;;;;11.72;82.86;92760.25;4968731;28;20046;-77
2021/05/24 08:58:23;;;;;;;634.65;463.65;;;;;;;11.81;83.47;92758.53;4975720;28;20090;-76
2021/05/24 09:00:50;;;;;;;144.20;96.70;;;;;;;11.25;81.43;92748.84;4984693;28;20138;-76
2021/05/24 09:03:21;;;;;;;1754.93;677.90;;;;;;;11.37;84.58;92738.75;4970179;28;20039;-77
2021/05/24 09:05:48;;;;;;;903.90;235.73;;;;;;;11.36;84.24;92723.28;4974439;28;20046;-77
2021/05/24 09:08:14;;;;;;;1117.53;284.35;;;;;;;11.48;85.36;92707.13;4971999;28;20065;-77
2021/05/24 09:10:42;;;;;;;464.70;166.02;;;;;;;11.37;82.01;92704.66;4975334;28;20046;-77
2021/05/24 09:13:16;;;;;;;32.70;13.45;;;;;;;10.93;82.57;92684.06;4952501;28;20409;-77
2021/05/24 09:15:45;;;;;;;85.40;28.00;;;;;;;10.62;84.43;92703.56;4961575;28;20050;-77
2021/05/24 09:18:11;;;;;;;228.75;82.18;;;;;;;10.56;84.39;92691.59;4972079;28;20031;-76
2021/05/24 09:20:39;;;;;;;688.55;277.05;;;;;;;10.62;85.51;92685.22;4971584;28;20047;-77
2021/05/24 09:23:31;;;;;;;1999.90;897.17;;;;;;;11.30;82.97;92683.25;4953441;28;20179;-77
2021/05/24 09:26:12;;;;;;;316.45;149.68;;;;;;;11.19;82.09;92680.03;4973859;28;20501;-77
2021/05/24 09:28:52;;;;;;;1654.53;888.53;;;;;;;11.59;84.22;92674.44;4972579;28;20145;-78
2021/05/24 09:31:22;;;;;;;47.38;27.20;;;;;;;11.21;83.31;92684.97;4972395;28;20111;-79
2021/05/24 09:33:53;;;;;;;1556.32;831.25;;;;;;;11.38;83.71;92693.09;4954787;28;20047;-78
2021/05/24 09:36:20;;;;;;;67.88;43.70;;;;;;;11.55;82.05;92687.34;4957850;28;20042;-77
2021/05/24 09:38:48;;;;;;;194.77;10.23;;;;;;;10.70;84.39;92686.47;4961626;28;20098;-76
2021/05/24 09:41:17;;;;;;;102.53;67.15;;;;;;;11.15;82.62;92676.41;4972458;28;20042;-78
2021/05/24 09:43:46;;;;;;;34.60;22.65;;;;;;;11.44;82.21;92668.38;4960464;28;20148;-77
2021/05/24 09:46:31;;;;;;;123.47;76.18;;;;;;;11.72;78.27;92657.97;4965119;28;20414;-78
2021/05/24 09:49:03;;;;;;;47.92;32.00;;;;;;;12.05;77.59;92668.47;4972252;28;20121;-78
2021/05/24 09:51:31;;;;;;;12.68;9.45;;;;;;;12.17;77.34;92674.00;4993285;28;20191;-75
2021/05/24 09:54:09;;;;;;;15.38;9.27;;;;;;;12.42;76.47;92658.84;4946944;28;20545;-77
2021/05/24 09:56:40;;;;;;;13.02;8.13;;;;;;;12.63;75.80;92670.50;4969521;28;20564;-76
2021/05/24 09:59:22;;;;;;;23.17;14.50;;;;;;;12.77;74.16;92659.19;4988909;28;20051;-77
2021/05/24 10:01:52;;;;;;;25.67;13.75;;;;;;;12.99;73.24;92650.56;4970805;28;20043;-79
2021/05/24 10:04:23;;;;;;;12.82;5.75;;;;;;;13.10;72.65;92646.63;4953930;28;20042;-77
2021/05/24 10:06:49;;;;;;;5.10;2.78;;;;;;;13.04;73.18;92647.84;4970301;28;20657;-77
2021/05/24 10:09:17;;;;;;;6.97;1.77;;;;;;;13.09;72.54;92627.47;4967350;28;20043;-78
2021/05/24 10:11:45;;;;;;;7.22;1.90;;;;;;;13.22;72.82;92623.25;4971066;28;20445;-76
2021/05/24 10:14:15;;;;;;;3.58;2.38;;;;;;;13.26;73.90;92618.16;4951090;28;20482;-78
2021/05/24 10:16:44;;;;;;;4.65;2.50;;;;;;;13.42;70.27;92611.50;4967117;28;20463;-79
2021/05/24 10:19:12;;;;;;;5.88;3.38;;;;;;;13.18;67.83;92611.00;4968318;28;20088;-79
2021/05/24 10:21:39;;;;;;;3.40;1.60;;;;;;;13.27;70.33;92598.69;4964830;28;20062;-78
2021/05/24 10:24:07;;;;;;;1.60;1.20;;;;;;;13.44;70.83;92590.94;4963547;28;20051;-79
2021/05/24 10:26:34;;;;;;;2.65;1.45;;;;;;;13.54;69.70;92588.03;4966967;28;20146;-78
2021/05/24 10:29:01;;;;;;;2.17;1.20;;;;;;;13.66;70.35;92582.22;4968390;28;20110;-80
2021/05/24 10:31:30;;;;;;;1.35;0.90;;;;;;;13.74;69.45;92589.38;4949968;28;20054;-79
2021/05/24 10:34:10;;;;;;;1.55;1.00;;;;;;;13.69;69.24;92578.19;4967164;28;20544;-79
2021/05/24 10:36:36;;;;;;;1.48;0.80;;;;;;;13.60;67.69;92580.03;4950588;28;20464;-79
2021/05/24 10:39:25;;;;;;;1.92;1.20;;;;;;;13.59;69.12;92570.59;4948736;28;20031;-79
2021/05/24 10:42:01;;;;;;;2.03;1.20;;;;;;;13.65;68.84;92572.03;4952717;28;20047;-78
2021/05/24 10:44:42;;;;;;;4.07;1.10;;;;;;;13.58;68.62;92566.38;4962535;28;20058;-79
2021/05/24 10:47:16;;;;;;;1.85;0.93;;;;;;;13.56;68.82;92565.94;4946798;28;20190;-79
2021/05/24 10:50:04;;;;;;;1.48;1.02;;;;;;;13.42;69.30;92558.91;4950759;28;20079;-81
2021/05/24 10:52:40;;;;;;;1.52;0.90;;;;;;;13.23;67.71;92560.94;4969421;28;20038;-77
2021/05/24 10:55:25;;;;;;;2.95;1.33;;;;;;;12.97;69.19;92561.53;4966865;28;20058;-80
2021/05/24 10:58:16;;;;;;;1.77;1.00;;;;;;;12.77;69.25;92562.00;4967097;28;20038;-79
2021/05/24 11:01:03;;;;;;;2.47;0.80;;;;;;;12.61;72.83;92558.91;4960625;28;20051;-79
2021/05/24 11:03:29;;;;;;;1.23;1.00;;;;;;;12.64;72.06;92558.34;4965514;28;20133;-79
2021/05/24 11:06:18;;;;;;;1.40;0.70;;;;;;;12.64;72.12;92563.59;4968186;28;20050;-79
2021/05/24 11:08:59;;;;;;;1.13;0.77;;;;;;;12.62;71.23;92553.38;4965483;28;20050;-79
2021/05/24 11:11:30;;;;;;;0.70;0.70;;;;;;;12.57;71.55;92545.63;4946994;28;20709;-80
2021/05/24 11:14:08;;;;;;;1.20;0.80;;;;;;;12.53;72.21;92549.91;4964874;28;20062;-80
2021/05/24 11:16:35;;;;;;;0.80;0.80;;;;;;;12.16;73.97;92549.13;4968469;28;20069;-80
2021/05/24 11:19:12;;;;;;;2.55;1.40;;;;;;;12.16;72.48;92554.34;4943866;28;20042;-80
2021/05/24 11:21:39;;;;;;;2.05;1.00;;;;;;;12.20;75.40;92549.28;4974631;28;20093;-79
2021/05/24 11:27:08;;;;;;;4.22;2.28;;;;;;;11.86;79.09;92548.59;4966681;28;20042;-78
2021/05/24 11:29:34;;;;;;;4.30;2.50;;;;;;;11.81;79.65;92548.69;4970547;28;20138;-78
2021/05/24 11:31:59;;;;;;;4.95;2.40;;;;;;;11.65;78.63;92548.22;4966784;28;20148;-78
2021/05/24 11:34:34;;;;;;;4.88;2.20;;;;;;;11.41;80.24;92545.75;4984915;28;20042;-79
2021/05/24 11:37:05;;;;;;;3.88;2.10;;;;;;;11.68;79.76;92549.47;4963361;28;20046;-78